sensor_id;sensor_type;location;lat;lon;timestamp;temperature;humidity
24338;DHT22;12457;50.832;4.346;2023-04-28T00:00:18;10.30;99.90
24338;DHT22;12457;50.832;4.346;2023-04-28T00:02:44;10.30;99.90
24338;DHT22;12457;50.832;4.346;2023-04-28T00:05:12;10.30;99.90
24338;DHT22;12457;50.832;4.346;2023-04-28T00:07:53;10.20;99.90
24338;DHT22;12457;50.832;4.346;2023-04-28T00:10:19;10.20;99.90
24338;DHT22;12457;50.832;4.346;2023-04-28T00:12:45;10.20;99.90
24338;DHT22;12457;50.832;4.346;2023-04-28T00:15:10;10.20;99.90
24338;DHT22;12457;50.832;4.346;2023-04-28T00:17:37;10.10;99.90
24338;DHT22;12457;50.832;4.346;2023-04-28T00:20:03;10.10;99.90
24338;DHT22;12457;50.832;4.346;2023-04-28T00:22:31;10.10;99.90
24338;DHT22;12457;50.832;4.346;2023-04-28T00:24:56;10.10;99.90
24338;DHT22;12457;50.832;4.346;2023-04-28T00:27:22;10.10;99.90
24338;DHT22;12457;50.832;4.346;2023-04-28T00:29:48;10.10;99.90
24338;DHT22;12457;50.832;4.346;2023-04-28T00:32:13;10.10;99.90
24338;DHT22;12457;50.832;4.346;2023-04-28T00:34:39;10.10;99.90
24338;DHT22;12457;50.832;4.346;2023-04-28T00:37:05;10.10;99.90
24338;DHT22;12457;50.832;4.346;2023-04-28T00:39:31;10.10;99.90
24338;DHT22;12457;50.832;4.346;2023-04-28T00:41:57;10.10;99.90
24338;DHT22;12457;50.832;4.346;2023-04-28T00:44:23;10.20;99.90
24338;DHT22;12457;50.832;4.346;2023-04-28T00:46:48;10.20;99.90
24338;DHT22;12457;50.832;4.346;2023-04-28T00:49:17;10.20;99.90
24338;DHT22;12457;50.832;4.346;2023-04-28T00:51:43;10.30;99.90
24338;DHT22;12457;50.832;4.346;2023-04-28T00:54:12;10.30;99.90
24338;DHT22;12457;50.832;4.346;2023-04-28T00:56:38;10.40;99.90
24338;DHT22;12457;50.832;4.346;2023-04-28T00:59:04;10.30;99.90
24338;DHT22;12457;50.832;4.346;2023-04-28T01:01:31;10.20;99.90
24338;DHT22;12457;50.832;4.346;2023-04-28T01:03:56;10.10;99.90
24338;DHT22;12457;50.832;4.346;2023-04-28T01:06:22;10.10;99.90
24338;DHT22;12457;50.832;4.346;2023-04-28T01:08:48;10.20;99.90
24338;DHT22;12457;50.832;4.346;2023-04-28T01:11:15;10.20;99.90
24338;DHT22;12457;50.832;4.346;2023-04-28T01:13:41;10.30;99.90
24338;DHT22;12457;50.832;4.346;2023-04-28T01:16:07;10.30;99.90
24338;DHT22;12457;50.832;4.346;2023-04-28T01:18:33;10.20;99.90
24338;DHT22;12457;50.832;4.346;2023-04-28T01:20:59;10.20;99.90
24338;DHT22;12457;50.832;4.346;2023-04-28T01:23:25;10.30;99.90
24338;DHT22;12457;50.832;4.346;2023-04-28T01:25:51;10.30;99.90
24338;DHT22;12457;50.832;4.346;2023-04-28T01:28:16;10.30;99.90
24338;DHT22;12457;50.832;4.346;2023-04-28T01:30:42;10.40;99.90
24338;DHT22;12457;50.832;4.346;2023-04-28T01:33:08;10.40;99.90
24338;DHT22;12457;50.832;4.346;2023-04-28T01:35:34;10.50;99.90
24338;DHT22;12457;50.832;4.346;2023-04-28T01:37:59;10.60;99.90
24338;DHT22;12457;50.832;4.346;2023-04-28T01:40:25;10.60;99.90
24338;DHT22;12457;50.832;4.346;2023-04-28T01:42:51;10.60;99.90
24338;DHT22;12457;50.832;4.346;2023-04-28T01:45:17;10.50;99.90
24338;DHT22;12457;50.832;4.346;2023-04-28T01:47:42;10.30;99.90
24338;DHT22;12457;50.832;4.346;2023-04-28T01:50:08;10.20;99.90
24338;DHT22;12457;50.832;4.346;2023-04-28T01:52:34;10.10;99.90
24338;DHT22;12457;50.832;4.346;2023-04-28T01:55:00;10.10;99.90
24338;DHT22;12457;50.832;4.346;2023-04-28T01:57:25;10.20;99.90
24338;DHT22;12457;50.832;4.346;2023-04-28T01:59:53;10.30;99.90
24338;DHT22;12457;50.832;4.346;2023-04-28T02:02:19;10.20;99.90
24338;DHT22;12457;50.832;4.346;2023-04-28T02:04:44;10.10;99.90
24338;DHT22;12457;50.832;4.346;2023-04-28T02:07:10;10.00;99.90
24338;DHT22;12457;50.832;4.346;2023-04-28T02:09:36;10.00;99.90
24338;DHT22;12457;50.832;4.346;2023-04-28T02:12:02;10.00;99.90
24338;DHT22;12457;50.832;4.346;2023-04-28T02:14:28;10.10;99.90
24338;DHT22;12457;50.832;4.346;2023-04-28T02:16:57;10.20;99.90
24338;DHT22;12457;50.832;4.346;2023-04-28T02:19:23;10.20;99.90
24338;DHT22;12457;50.832;4.346;2023-04-28T02:21:49;10.20;99.90
24338;DHT22;12457;50.832;4.346;2023-04-28T02:24:15;10.20;99.90
24338;DHT22;12457;50.832;4.346;2023-04-28T02:26:41;10.20;99.90
24338;DHT22;12457;50.832;4.346;2023-04-28T02:29:06;10.30;99.90
24338;DHT22;12457;50.832;4.346;2023-04-28T02:31:32;10.30;99.90
24338;DHT22;12457;50.832;4.346;2023-04-28T02:33:58;10.30;99.90
24338;DHT22;12457;50.832;4.346;2023-04-28T02:36:23;10.40;99.90
24338;DHT22;12457;50.832;4.346;2023-04-28T02:38:49;10.40;99.90
24338;DHT22;12457;50.832;4.346;2023-04-28T02:41:15;10.40;99.90
24338;DHT22;12457;50.832;4.346;2023-04-28T02:43:40;10.40;99.90
24338;DHT22;12457;50.832;4.346;2023-04-28T02:46:06;10.50;99.90
24338;DHT22;12457;50.832;4.346;2023-04-28T02:48:33;10.50;99.90
24338;DHT22;12457;50.832;4.346;2023-04-28T02:51:02;10.60;99.90
24338;DHT22;12457;50.832;4.346;2023-04-28T02:53:28;10.60;99.90
24338;DHT22;12457;50.832;4.346;2023-04-28T02:55:53;10.60;99.90
24338;DHT22;12457;50.832;4.346;2023-04-28T02:58:19;10.70;99.90
24338;DHT22;12457;50.832;4.346;2023-04-28T03:00:45;10.70;99.90
24338;DHT22;12457;50.832;4.346;2023-04-28T03:03:11;10.80;99.90
24338;DHT22;12457;50.832;4.346;2023-04-28T03:05:37;10.70;99.90
24338;DHT22;12457;50.832;4.346;2023-04-28T03:08:02;10.80;99.90
24338;DHT22;12457;50.832;4.346;2023-04-28T03:10:28;10.80;99.90
24338;DHT22;12457;50.832;4.346;2023-04-28T03:12:54;10.80;99.90
24338;DHT22;12457;50.832;4.346;2023-04-28T03:15:19;10.80;99.90
24338;DHT22;12457;50.832;4.346;2023-04-28T03:17:45;10.80;99.90
24338;DHT22;12457;50.832;4.346;2023-04-28T03:20:11;10.80;99.90
24338;DHT22;12457;50.832;4.346;2023-04-28T03:22:37;10.80;99.90
24338;DHT22;12457;50.832;4.346;2023-04-28T03:25:03;10.80;99.90
24338;DHT22;12457;50.832;4.346;2023-04-28T03:27:30;10.70;99.90
24338;DHT22;12457;50.832;4.346;2023-04-28T03:29:56;10.80;99.90
24338;DHT22;12457;50.832;4.346;2023-04-28T03:32:21;10.90;99.90
24338;DHT22;12457;50.832;4.346;2023-04-28T03:34:47;11.10;99.90
24338;DHT22;12457;50.832;4.346;2023-04-28T03:37:13;11.10;99.90
24338;DHT22;12457;50.832;4.346;2023-04-28T03:39:38;11.20;99.90
24338;DHT22;12457;50.832;4.346;2023-04-28T03:42:04;11.20;99.90
24338;DHT22;12457;50.832;4.346;2023-04-28T03:44:30;11.30;99.90
24338;DHT22;12457;50.832;4.346;2023-04-28T03:46:56;11.50;99.90
24338;DHT22;12457;50.832;4.346;2023-04-28T03:49:22;11.50;99.90
24338;DHT22;12457;50.832;4.346;2023-04-28T03:51:47;11.50;99.90
24338;DHT22;12457;50.832;4.346;2023-04-28T03:54:15;11.60;99.90
24338;DHT22;12457;50.832;4.346;2023-04-28T03:56:41;11.60;99.90
24338;DHT22;12457;50.832;4.346;2023-04-28T03:59:07;11.50;99.90
24338;DHT22;12457;50.832;4.346;2023-04-28T04:01:36;11.50;99.90
24338;DHT22;12457;50.832;4.346;2023-04-28T04:04:01;11.50;99.90
24338;DHT22;12457;50.832;4.346;2023-04-28T04:06:27;11.60;99.90
24338;DHT22;12457;50.832;4.346;2023-04-28T04:08:53;11.70;99.90
24338;DHT22;12457;50.832;4.346;2023-04-28T04:11:19;11.80;99.90
24338;DHT22;12457;50.832;4.346;2023-04-28T04:13:45;11.80;99.90
24338;DHT22;12457;50.832;4.346;2023-04-28T04:16:10;11.80;99.90
24338;DHT22;12457;50.832;4.346;2023-04-28T04:18:36;11.90;99.90
24338;DHT22;12457;50.832;4.346;2023-04-28T04:21:02;11.80;99.90
24338;DHT22;12457;50.832;4.346;2023-04-28T04:23:28;11.80;99.90
24338;DHT22;12457;50.832;4.346;2023-04-28T04:25:55;11.70;99.90
24338;DHT22;12457;50.832;4.346;2023-04-28T04:28:20;11.60;99.90
24338;DHT22;12457;50.832;4.346;2023-04-28T04:30:46;11.70;99.90
24338;DHT22;12457;50.832;4.346;2023-04-28T04:33:12;11.60;99.90
24338;DHT22;12457;50.832;4.346;2023-04-28T04:35:38;11.60;99.90
24338;DHT22;12457;50.832;4.346;2023-04-28T04:38:03;11.70;99.90
24338;DHT22;12457;50.832;4.346;2023-04-28T04:40:29;11.70;99.90
24338;DHT22;12457;50.832;4.346;2023-04-28T04:42:55;11.90;99.90
24338;DHT22;12457;50.832;4.346;2023-04-28T04:45:20;12.00;99.90
24338;DHT22;12457;50.832;4.346;2023-04-28T04:47:46;12.00;99.90
24338;DHT22;12457;50.832;4.346;2023-04-28T04:50:12;12.00;99.90
24338;DHT22;12457;50.832;4.346;2023-04-28T04:52:39;12.10;99.90
24338;DHT22;12457;50.832;4.346;2023-04-28T04:55:06;12.20;99.90
24338;DHT22;12457;50.832;4.346;2023-04-28T04:57:32;12.30;99.90
24338;DHT22;12457;50.832;4.346;2023-04-28T04:59:57;12.10;99.90
24338;DHT22;12457;50.832;4.346;2023-04-28T05:02:23;12.10;99.90
24338;DHT22;12457;50.832;4.346;2023-04-28T05:04:49;12.10;99.90
24338;DHT22;12457;50.832;4.346;2023-04-28T05:07:14;12.20;99.90
24338;DHT22;12457;50.832;4.346;2023-04-28T05:09:40;12.30;99.90
24338;DHT22;12457;50.832;4.346;2023-04-28T05:12:06;12.30;99.90
24338;DHT22;12457;50.832;4.346;2023-04-28T05:14:31;12.40;99.90
24338;DHT22;12457;50.832;4.346;2023-04-28T05:16:58;12.50;99.90
24338;DHT22;12457;50.832;4.346;2023-04-28T05:19:24;12.60;99.90
24338;DHT22;12457;50.832;4.346;2023-04-28T05:21:50;12.70;99.90
24338;DHT22;12457;50.832;4.346;2023-04-28T05:24:20;12.60;99.90
24338;DHT22;12457;50.832;4.346;2023-04-28T05:26:48;12.50;99.90
24338;DHT22;12457;50.832;4.346;2023-04-28T05:29:14;12.50;99.90
24338;DHT22;12457;50.832;4.346;2023-04-28T05:31:40;12.70;99.90
24338;DHT22;12457;50.832;4.346;2023-04-28T05:34:06;12.60;99.90
24338;DHT22;12457;50.832;4.346;2023-04-28T05:36:32;12.50;99.90
24338;DHT22;12457;50.832;4.346;2023-04-28T05:38:57;12.60;99.90
24338;DHT22;12457;50.832;4.346;2023-04-28T05:41:23;12.60;99.90
24338;DHT22;12457;50.832;4.346;2023-04-28T05:43:49;12.70;99.90
24338;DHT22;12457;50.832;4.346;2023-04-28T05:46:16;12.80;99.90
24338;DHT22;12457;50.832;4.346;2023-04-28T05:48:42;12.90;99.90
24338;DHT22;12457;50.832;4.346;2023-04-28T05:51:07;13.00;99.90
24338;DHT22;12457;50.832;4.346;2023-04-28T05:53:33;13.00;99.90
24338;DHT22;12457;50.832;4.346;2023-04-28T05:55:59;13.20;99.90
24338;DHT22;12457;50.832;4.346;2023-04-28T05:58:25;13.30;99.90
24338;DHT22;12457;50.832;4.346;2023-04-28T06:00:50;13.50;99.90
24338;DHT22;12457;50.832;4.346;2023-04-28T06:03:16;13.60;99.90
24338;DHT22;12457;50.832;4.346;2023-04-28T06:05:43;13.70;99.90
24338;DHT22;12457;50.832;4.346;2023-04-28T06:08:09;13.80;99.90
24338;DHT22;12457;50.832;4.346;2023-04-28T06:10:36;13.90;99.90
24338;DHT22;12457;50.832;4.346;2023-04-28T06:13:02;14.00;99.90
24338;DHT22;12457;50.832;4.346;2023-04-28T06:15:29;14.00;99.90
24338;DHT22;12457;50.832;4.346;2023-04-28T06:17:55;14.10;99.90
24338;DHT22;12457;50.832;4.346;2023-04-28T06:20:21;14.00;99.90
24338;DHT22;12457;50.832;4.346;2023-04-28T06:22:46;14.10;99.90
24338;DHT22;12457;50.832;4.346;2023-04-28T06:25:12;14.10;99.90
24338;DHT22;12457;50.832;4.346;2023-04-28T06:27:38;14.20;99.90
24338;DHT22;12457;50.832;4.346;2023-04-28T06:30:04;14.20;99.90
24338;DHT22;12457;50.832;4.346;2023-04-28T06:32:29;14.20;99.90
24338;DHT22;12457;50.832;4.346;2023-04-28T06:34:55;14.30;99.90
24338;DHT22;12457;50.832;4.346;2023-04-28T06:37:21;14.20;99.90
24338;DHT22;12457;50.832;4.346;2023-04-28T06:39:47;14.30;99.90
24338;DHT22;12457;50.832;4.346;2023-04-28T06:42:12;14.30;99.90
24338;DHT22;12457;50.832;4.346;2023-04-28T06:44:40;14.30;99.90
24338;DHT22;12457;50.832;4.346;2023-04-28T06:47:09;14.30;99.90
24338;DHT22;12457;50.832;4.346;2023-04-28T06:49:35;14.40;99.90
24338;DHT22;12457;50.832;4.346;2023-04-28T06:52:00;14.50;99.90
24338;DHT22;12457;50.832;4.346;2023-04-28T06:54:26;14.60;99.90
24338;DHT22;12457;50.832;4.346;2023-04-28T06:56:52;14.60;99.90
24338;DHT22;12457;50.832;4.346;2023-04-28T06:59:17;14.60;99.90
24338;DHT22;12457;50.832;4.346;2023-04-28T07:01:43;14.60;99.90
24338;DHT22;12457;50.832;4.346;2023-04-28T07:04:09;14.50;99.90
24338;DHT22;12457;50.832;4.346;2023-04-28T07:06:34;14.60;99.90
24338;DHT22;12457;50.832;4.346;2023-04-28T07:09:00;14.60;99.90
24338;DHT22;12457;50.832;4.346;2023-04-28T07:11:26;14.50;99.90
24338;DHT22;12457;50.832;4.346;2023-04-28T07:13:52;14.60;99.90
24338;DHT22;12457;50.832;4.346;2023-04-28T07:16:18;14.60;99.90
24338;DHT22;12457;50.832;4.346;2023-04-28T07:18:43;14.70;99.90
24338;DHT22;12457;50.832;4.346;2023-04-28T07:21:10;14.70;99.90
24338;DHT22;12457;50.832;4.346;2023-04-28T07:23:35;14.70;99.90
24338;DHT22;12457;50.832;4.346;2023-04-28T07:26:03;14.70;99.90
24338;DHT22;12457;50.832;4.346;2023-04-28T07:28:29;14.80;99.90
24338;DHT22;12457;50.832;4.346;2023-04-28T07:30:54;14.90;99.90
24338;DHT22;12457;50.832;4.346;2023-04-28T07:33:20;15.00;99.90
24338;DHT22;12457;50.832;4.346;2023-04-28T07:35:46;15.10;99.90
24338;DHT22;12457;50.832;4.346;2023-04-28T07:38:12;15.40;99.90
24338;DHT22;12457;50.832;4.346;2023-04-28T07:40:38;15.70;99.90
24338;DHT22;12457;50.832;4.346;2023-04-28T07:43:04;15.90;99.90
24338;DHT22;12457;50.832;4.346;2023-04-28T07:45:29;16.20;99.90
24338;DHT22;12457;50.832;4.346;2023-04-28T07:47:55;16.50;99.90
24338;DHT22;12457;50.832;4.346;2023-04-28T07:50:21;16.80;99.90
24338;DHT22;12457;50.832;4.346;2023-04-28T07:52:47;17.00;99.90
24338;DHT22;12457;50.832;4.346;2023-04-28T07:55:12;17.20;99.90
24338;DHT22;12457;50.832;4.346;2023-04-28T07:57:38;17.50;99.90
24338;DHT22;12457;50.832;4.346;2023-04-28T08:00:05;17.70;99.90
24338;DHT22;12457;50.832;4.346;2023-04-28T08:02:31;17.60;99.90
24338;DHT22;12457;50.832;4.346;2023-04-28T08:04:58;17.60;99.90
24338;DHT22;12457;50.832;4.346;2023-04-28T08:07:24;17.50;99.90
24338;DHT22;12457;50.832;4.346;2023-04-28T08:09:50;17.40;99.90
24338;DHT22;12457;50.832;4.346;2023-04-28T08:12:16;17.30;99.90
24338;DHT22;12457;50.832;4.346;2023-04-28T08:14:42;17.30;99.90
24338;DHT22;12457;50.832;4.346;2023-04-28T08:17:08;17.20;99.90
24338;DHT22;12457;50.832;4.346;2023-04-28T08:19:34;17.10;99.90
24338;DHT22;12457;50.832;4.346;2023-04-28T08:22:00;16.90;99.90
24338;DHT22;12457;50.832;4.346;2023-04-28T08:24:30;16.80;99.90
24338;DHT22;12457;50.832;4.346;2023-04-28T08:27:00;16.80;99.90
24338;DHT22;12457;50.832;4.346;2023-04-28T08:29:31;16.70;99.90
24338;DHT22;12457;50.832;4.346;2023-04-28T08:31:57;16.80;99.90
24338;DHT22;12457;50.832;4.346;2023-04-28T08:34:23;16.80;99.90
24338;DHT22;12457;50.832;4.346;2023-04-28T08:36:50;16.60;99.90
24338;DHT22;12457;50.832;4.346;2023-04-28T08:39:15;16.60;99.90
24338;DHT22;12457;50.832;4.346;2023-04-28T08:41:46;16.60;99.90
24338;DHT22;12457;50.832;4.346;2023-04-28T08:44:12;16.60;99.90
24338;DHT22;12457;50.832;4.346;2023-04-28T08:46:42;16.70;99.90
24338;DHT22;12457;50.832;4.346;2023-04-28T08:49:14;16.80;99.90
24338;DHT22;12457;50.832;4.346;2023-04-28T08:51:59;16.90;99.90
24338;DHT22;12457;50.832;4.346;2023-04-28T08:54:30;17.00;99.90
24338;DHT22;12457;50.832;4.346;2023-04-28T08:56:57;17.00;99.90
24338;DHT22;12457;50.832;4.346;2023-04-28T08:59:23;17.10;99.90
24338;DHT22;12457;50.832;4.346;2023-04-28T09:01:49;17.00;99.90
24338;DHT22;12457;50.832;4.346;2023-04-28T09:04:19;16.70;99.90
24338;DHT22;12457;50.832;4.346;2023-04-28T09:06:45;16.80;99.90
24338;DHT22;12457;50.832;4.346;2023-04-28T09:12:00;16.80;99.90
24338;DHT22;12457;50.832;4.346;2023-04-28T09:14:34;16.90;99.90
24338;DHT22;12457;50.832;4.346;2023-04-28T09:17:00;17.20;99.90
24338;DHT22;12457;50.832;4.346;2023-04-28T09:19:33;17.40;99.90
24338;DHT22;12457;50.832;4.346;2023-04-28T09:22:00;17.80;99.90
24338;DHT22;12457;50.832;4.346;2023-04-28T09:24:34;18.10;99.90
24338;DHT22;12457;50.832;4.346;2023-04-28T09:27:04;18.20;99.90
24338;DHT22;12457;50.832;4.346;2023-04-28T09:29:31;18.30;99.90
24338;DHT22;12457;50.832;4.346;2023-04-28T09:34:45;18.80;99.90
24338;DHT22;12457;50.832;4.346;2023-04-28T09:37:18;18.70;99.90
24338;DHT22;12457;50.832;4.346;2023-04-28T09:39:46;18.70;99.90
24338;DHT22;12457;50.832;4.346;2023-04-28T09:42:31;18.70;99.90
24338;DHT22;12457;50.832;4.346;2023-04-28T09:45:04;18.50;99.90
24338;DHT22;12457;50.832;4.346;2023-04-28T09:47:32;18.30;99.90
24338;DHT22;12457;50.832;4.346;2023-04-28T09:50:00;18.20;99.90
24338;DHT22;12457;50.832;4.346;2023-04-28T09:52:26;18.20;99.90
24338;DHT22;12457;50.832;4.346;2023-04-28T09:54:54;18.30;99.90
24338;DHT22;12457;50.832;4.346;2023-04-28T09:57:20;18.40;99.90
24338;DHT22;12457;50.832;4.346;2023-04-28T09:59:51;18.40;99.90
24338;DHT22;12457;50.832;4.346;2023-04-28T10:02:18;18.50;99.90
24338;DHT22;12457;50.832;4.346;2023-04-28T10:04:47;18.70;99.90
24338;DHT22;12457;50.832;4.346;2023-04-28T10:07:14;18.70;99.90
24338;DHT22;12457;50.832;4.346;2023-04-28T10:09:48;18.70;99.90
24338;DHT22;12457;50.832;4.346;2023-04-28T10:12:17;18.80;99.90
24338;DHT22;12457;50.832;4.346;2023-04-28T10:14:44;18.60;99.90
24338;DHT22;12457;50.832;4.346;2023-04-28T10:17:12;18.40;99.90
24338;DHT22;12457;50.832;4.346;2023-04-28T10:19:45;18.40;99.90
24338;DHT22;12457;50.832;4.346;2023-04-28T10:27:38;18.40;99.90
24338;DHT22;12457;50.832;4.346;2023-04-28T10:30:15;18.30;99.90
24338;DHT22;12457;50.832;4.346;2023-04-28T10:32:42;18.10;99.90
24338;DHT22;12457;50.832;4.346;2023-04-28T10:40:49;18.00;99.90
24338;DHT22;12457;50.832;4.346;2023-04-28T10:56:25;18.30;99.90
24338;DHT22;12457;50.832;4.346;2023-04-28T10:59:01;18.30;99.90
24338;DHT22;12457;50.832;4.346;2023-04-28T11:01:38;18.20;99.90
24338;DHT22;12457;50.832;4.346;2023-04-28T11:04:05;18.00;99.90
24338;DHT22;12457;50.832;4.346;2023-04-28T11:06:43;17.90;99.90
24338;DHT22;12457;50.832;4.346;2023-04-28T11:16:52;17.80;99.90
24338;DHT22;12457;50.832;4.346;2023-04-28T11:19:20;17.70;99.90
24338;DHT22;12457;50.832;4.346;2023-04-28T11:21:48;17.40;99.90
24338;DHT22;12457;50.832;4.346;2023-04-28T11:24:14;17.30;99.90
24338;DHT22;12457;50.832;4.346;2023-04-28T11:26:40;17.30;99.90
24338;DHT22;12457;50.832;4.346;2023-04-28T11:29:06;17.10;99.90
24338;DHT22;12457;50.832;4.346;2023-04-28T11:31:33;17.00;99.90
24338;DHT22;12457;50.832;4.346;2023-04-28T11:34:17;16.90;99.90
24338;DHT22;12457;50.832;4.346;2023-04-28T11:36:43;16.90;99.90
24338;DHT22;12457;50.832;4.346;2023-04-28T11:39:10;16.90;99.90
24338;DHT22;12457;50.832;4.346;2023-04-28T11:41:39;16.90;99.90
24338;DHT22;12457;50.832;4.346;2023-04-28T11:44:22;16.90;99.90
24338;DHT22;12457;50.832;4.346;2023-04-28T11:46:53;16.90;99.90
24338;DHT22;12457;50.832;4.346;2023-04-28T11:49:31;17.00;99.90
24338;DHT22;12457;50.832;4.346;2023-04-28T11:52:06;16.90;99.90
24338;DHT22;12457;50.832;4.346;2023-04-28T11:54:33;16.90;99.90
24338;DHT22;12457;50.832;4.346;2023-04-28T11:56:59;16.90;99.90
24338;DHT22;12457;50.832;4.346;2023-04-28T11:59:51;16.90;99.90
24338;DHT22;12457;50.832;4.346;2023-04-28T12:02:26;16.90;99.90
24338;DHT22;12457;50.832;4.346;2023-04-28T12:04:53;16.80;99.90
24338;DHT22;12457;50.832;4.346;2023-04-28T12:07:19;16.70;99.90
24338;DHT22;12457;50.832;4.346;2023-04-28T12:10:09;16.70;99.90
24338;DHT22;12457;50.832;4.346;2023-04-28T12:12:35;16.80;99.90
24338;DHT22;12457;50.832;4.346;2023-04-28T12:15:02;16.90;99.90
24338;DHT22;12457;50.832;4.346;2023-04-28T12:17:39;17.20;99.90
24338;DHT22;12457;50.832;4.346;2023-04-28T12:20:09;17.30;99.90
24338;DHT22;12457;50.832;4.346;2023-04-28T12:22:49;17.20;99.90
24338;DHT22;12457;50.832;4.346;2023-04-28T12:25:17;17.10;99.90
24338;DHT22;12457;50.832;4.346;2023-04-28T12:28:17;17.00;99.90
24338;DHT22;12457;50.832;4.346;2023-04-28T12:30:43;16.80;99.90
24338;DHT22;12457;50.832;4.346;2023-04-28T12:33:26;16.90;99.90
24338;DHT22;12457;50.832;4.346;2023-04-28T12:35:52;17.00;99.90
24338;DHT22;12457;50.832;4.346;2023-04-28T12:38:22;17.10;99.90
24338;DHT22;12457;50.832;4.346;2023-04-28T12:40:48;17.00;99.90
24338;DHT22;12457;50.832;4.346;2023-04-28T12:43:13;16.90;99.90
24338;DHT22;12457;50.832;4.346;2023-04-28T12:45:42;16.90;99.90
24338;DHT22;12457;50.832;4.346;2023-04-28T12:48:08;16.80;99.90
24338;DHT22;12457;50.832;4.346;2023-04-28T12:50:34;16.80;99.90
24338;DHT22;12457;50.832;4.346;2023-04-28T12:53:02;16.90;99.90
24338;DHT22;12457;50.832;4.346;2023-04-28T12:55:29;16.90;99.90
24338;DHT22;12457;50.832;4.346;2023-04-28T12:57:54;16.70;99.90
24338;DHT22;12457;50.832;4.346;2023-04-28T13:00:20;16.70;99.90
24338;DHT22;12457;50.832;4.346;2023-04-28T13:02:48;16.80;99.90
24338;DHT22;12457;50.832;4.346;2023-04-28T13:05:14;16.60;99.90
24338;DHT22;12457;50.832;4.346;2023-04-28T13:07:40;16.70;99.90
24338;DHT22;12457;50.832;4.346;2023-04-28T13:10:07;16.90;99.90
24338;DHT22;12457;50.832;4.346;2023-04-28T13:12:33;17.20;99.90
24338;DHT22;12457;50.832;4.346;2023-04-28T13:15:01;17.30;99.90
24338;DHT22;12457;50.832;4.346;2023-04-28T13:17:26;17.50;99.90
24338;DHT22;12457;50.832;4.346;2023-04-28T13:19:52;17.60;99.90
24338;DHT22;12457;50.832;4.346;2023-04-28T13:22:18;17.50;99.90
24338;DHT22;12457;50.832;4.346;2023-04-28T13:24:46;17.30;99.90
24338;DHT22;12457;50.832;4.346;2023-04-28T13:27:12;17.10;99.90
24338;DHT22;12457;50.832;4.346;2023-04-28T13:29:38;17.00;99.90
24338;DHT22;12457;50.832;4.346;2023-04-28T13:32:04;16.80;99.90
24338;DHT22;12457;50.832;4.346;2023-04-28T13:34:30;16.80;99.90
24338;DHT22;12457;50.832;4.346;2023-04-28T13:36:56;16.80;99.90
24338;DHT22;12457;50.832;4.346;2023-04-28T13:39:22;16.80;99.90
24338;DHT22;12457;50.832;4.346;2023-04-28T13:41:48;16.80;99.90
24338;DHT22;12457;50.832;4.346;2023-04-28T13:44:14;16.70;99.90
24338;DHT22;12457;50.832;4.346;2023-04-28T13:46:40;16.90;99.90
24338;DHT22;12457;50.832;4.346;2023-04-28T13:49:09;16.80;99.90
24338;DHT22;12457;50.832;4.346;2023-04-28T13:51:35;16.90;99.90
24338;DHT22;12457;50.832;4.346;2023-04-28T13:54:01;16.90;99.90
24338;DHT22;12457;50.832;4.346;2023-04-28T13:56:34;16.90;99.90
24338;DHT22;12457;50.832;4.346;2023-04-28T13:59:00;16.90;99.90
24338;DHT22;12457;50.832;4.346;2023-04-28T14:01:26;16.90;99.90
24338;DHT22;12457;50.832;4.346;2023-04-28T14:03:52;16.90;99.90
24338;DHT22;12457;50.832;4.346;2023-04-28T14:06:18;16.90;99.90
24338;DHT22;12457;50.832;4.346;2023-04-28T14:08:43;17.00;99.90
24338;DHT22;12457;50.832;4.346;2023-04-28T14:11:09;17.10;99.90
24338;DHT22;12457;50.832;4.346;2023-04-28T14:13:35;16.90;99.90
24338;DHT22;12457;50.832;4.346;2023-04-28T14:16:00;17.20;99.90
24338;DHT22;12457;50.832;4.346;2023-04-28T14:18:27;17.30;99.90
24338;DHT22;12457;50.832;4.346;2023-04-28T14:20:53;17.30;99.90
24338;DHT22;12457;50.832;4.346;2023-04-28T14:23:19;17.40;99.90
24338;DHT22;12457;50.832;4.346;2023-04-28T14:25:45;17.40;99.90
24338;DHT22;12457;50.832;4.346;2023-04-28T14:28:11;17.60;99.90
24338;DHT22;12457;50.832;4.346;2023-04-28T14:30:37;17.60;99.90
24338;DHT22;12457;50.832;4.346;2023-04-28T14:33:02;17.50;99.90
24338;DHT22;12457;50.832;4.346;2023-04-28T14:35:28;17.50;99.90
24338;DHT22;12457;50.832;4.346;2023-04-28T14:37:56;17.50;99.90
24338;DHT22;12457;50.832;4.346;2023-04-28T14:40:22;17.60;99.90
24338;DHT22;12457;50.832;4.346;2023-04-28T14:42:49;17.70;99.90
24338;DHT22;12457;50.832;4.346;2023-04-28T14:45:15;17.70;99.90
24338;DHT22;12457;50.832;4.346;2023-04-28T14:47:42;17.80;99.90
24338;DHT22;12457;50.832;4.346;2023-04-28T14:50:08;17.80;99.90
24338;DHT22;12457;50.832;4.346;2023-04-28T14:52:34;17.90;99.90
24338;DHT22;12457;50.832;4.346;2023-04-28T14:55:00;18.10;99.90
24338;DHT22;12457;50.832;4.346;2023-04-28T14:57:26;18.20;99.90
24338;DHT22;12457;50.832;4.346;2023-04-28T14:59:53;18.30;99.90
24338;DHT22;12457;50.832;4.346;2023-04-28T15:02:19;18.20;99.90
24338;DHT22;12457;50.832;4.346;2023-04-28T15:04:51;18.30;99.90
24338;DHT22;12457;50.832;4.346;2023-04-28T15:07:17;18.40;99.90
24338;DHT22;12457;50.832;4.346;2023-04-28T15:09:43;18.30;99.90
24338;DHT22;12457;50.832;4.346;2023-04-28T15:12:09;18.30;99.90
24338;DHT22;12457;50.832;4.346;2023-04-28T15:14:34;18.20;99.90
24338;DHT22;12457;50.832;4.346;2023-04-28T15:17:00;18.00;99.90
24338;DHT22;12457;50.832;4.346;2023-04-28T15:19:26;18.10;99.90
24338;DHT22;12457;50.832;4.346;2023-04-28T15:21:52;18.20;99.90
24338;DHT22;12457;50.832;4.346;2023-04-28T15:24:19;18.30;99.90
24338;DHT22;12457;50.832;4.346;2023-04-28T15:26:46;18.40;99.90
24338;DHT22;12457;50.832;4.346;2023-04-28T15:29:12;18.40;99.90
24338;DHT22;12457;50.832;4.346;2023-04-28T15:31:37;18.40;99.90
24338;DHT22;12457;50.832;4.346;2023-04-28T15:34:04;18.30;99.90
24338;DHT22;12457;50.832;4.346;2023-04-28T15:36:30;18.20;99.90
24338;DHT22;12457;50.832;4.346;2023-04-28T15:38:56;18.00;99.90
24338;DHT22;12457;50.832;4.346;2023-04-28T15:41:22;17.80;99.90
24338;DHT22;12457;50.832;4.346;2023-04-28T15:43:48;17.70;99.90
24338;DHT22;12457;50.832;4.346;2023-04-28T15:46:20;17.30;99.90
24338;DHT22;12457;50.832;4.346;2023-04-28T15:48:46;17.20;99.90
24338;DHT22;12457;50.832;4.346;2023-04-28T15:51:11;17.10;99.90
24338;DHT22;12457;50.832;4.346;2023-04-28T15:53:38;17.20;99.90
24338;DHT22;12457;50.832;4.346;2023-04-28T15:56:04;17.20;99.90
24338;DHT22;12457;50.832;4.346;2023-04-28T15:58:30;17.20;99.90
24338;DHT22;12457;50.832;4.346;2023-04-28T16:00:56;17.10;99.90
24338;DHT22;12457;50.832;4.346;2023-04-28T16:03:24;16.90;99.90
24338;DHT22;12457;50.832;4.346;2023-04-28T16:05:52;16.60;99.90